createdAt,value
2023-04-27T00:00:35.858Z,554.00
2023-04-27T00:01:35.884Z,553.00
2023-04-27T00:02:36.026Z,552.00
2023-04-27T00:03:36.093Z,551.00
2023-04-27T00:04:36.176Z,552.00
2023-04-27T00:05:36.173Z,551.00
2023-04-27T00:06:36.106Z,551.00
2023-04-27T00:07:36.149Z,550.00
2023-04-27T00:08:36.217Z,550.00
2023-04-27T00:09:36.273Z,550.00
2023-04-27T00:10:36.336Z,551.00
2023-04-27T00:11:36.367Z,553.00
2023-04-27T00:12:36.400Z,553.00
2023-04-27T00:13:36.463Z,551.00
2023-04-27T00:14:36.510Z,549.00
2023-04-27T00:15:36.575Z,549.00
2023-04-27T00:16:36.704Z,550.00
2023-04-27T00:17:36.705Z,551.00
2023-04-27T00:18:36.672Z,547.00
2023-04-27T00:19:36.729Z,545.00
2023-04-27T00:20:36.784Z,547.00
2023-04-27T00:21:36.850Z,546.00
2023-04-27T00:22:36.939Z,545.00
2023-04-27T00:23:36.945Z,546.00
2023-04-27T00:24:36.988Z,546.00
2023-04-27T00:25:37.045Z,546.00
2023-04-27T00:26:37.055Z,545.00
2023-04-27T00:27:37.113Z,547.00
2023-04-27T00:28:37.170Z,547.00
2023-04-27T00:29:37.228Z,548.00
2023-04-27T00:30:37.242Z,547.00
2023-04-27T00:31:37.352Z,547.00
2023-04-27T00:32:37.405Z,544.00
2023-04-27T00:33:37.398Z,543.00
2023-04-27T00:34:37.450Z,543.00
2023-04-27T00:35:37.522Z,543.00
2023-04-27T00:36:37.588Z,544.00
2023-04-27T00:37:37.661Z,542.00
2023-04-27T00:38:37.649Z,541.00
2023-04-27T00:39:37.684Z,540.00
2023-04-27T00:40:37.731Z,540.00
2023-04-27T00:41:37.820Z,541.00
2023-04-27T00:42:37.895Z,539.00
2023-04-27T00:43:37.903Z,538.00
2023-04-27T00:44:39.723Z,537.00
2023-04-27T00:45:38.087Z,538.00
2023-04-27T00:46:38.053Z,540.00
2023-04-27T00:47:38.111Z,541.00
2023-04-27T00:48:38.175Z,540.00
2023-04-27T00:49:38.208Z,536.00
2023-04-27T00:50:38.239Z,536.00
2023-04-27T00:51:38.317Z,535.00
2023-04-27T00:52:38.333Z,537.00
2023-04-27T00:53:38.421Z,533.00
2023-04-27T00:54:38.462Z,536.00
2023-04-27T00:55:38.488Z,535.00
2023-04-27T00:56:38.534Z,536.00
2023-04-27T00:57:38.601Z,537.00
2023-04-27T00:58:38.610Z,536.00
2023-04-27T00:59:38.658Z,536.00
2023-04-27T01:00:38.758Z,536.00
2023-04-27T01:01:38.783Z,539.00
2023-04-27T01:02:39.054Z,540.00
2023-04-27T01:03:39.134Z,539.00
2023-04-27T01:04:39.004Z,540.00
2023-04-27T01:06:03.451Z,537.00
2023-04-27T01:07:03.493Z,541.00
2023-04-27T01:08:03.500Z,542.00
2023-04-27T01:09:03.558Z,541.00
2023-04-27T01:10:03.660Z,541.00
2023-04-27T01:11:03.678Z,541.00
2023-04-27T01:12:03.706Z,538.00
2023-04-27T01:13:03.731Z,536.00
2023-04-27T01:14:03.785Z,537.00
2023-04-27T01:15:03.828Z,537.00
2023-04-27T01:16:03.862Z,540.00
2023-04-27T01:17:04.010Z,537.00
2023-04-27T01:18:03.965Z,535.00
2023-04-27T01:19:04.021Z,534.00
2023-04-27T01:20:04.052Z,534.00
2023-04-27T01:21:04.106Z,537.00
2023-04-27T01:22:04.143Z,536.00
2023-04-27T01:23:04.157Z,535.00
2023-04-27T01:24:04.279Z,536.00
2023-04-27T01:25:04.232Z,536.00
2023-04-27T01:26:04.284Z,534.00
2023-04-27T01:27:04.333Z,533.00
2023-04-27T01:28:04.367Z,533.00
2023-04-27T01:29:04.500Z,534.00
2023-04-27T01:30:04.535Z,534.00
2023-04-27T01:31:04.636Z,535.00
2023-04-27T01:32:04.552Z,536.00
2023-04-27T01:33:04.652Z,535.00
2023-04-27T01:34:04.661Z,534.00
2023-04-27T01:35:04.735Z,532.00
2023-04-27T01:36:04.744Z,535.00
2023-04-27T01:37:04.812Z,533.00
2023-04-27T01:38:04.833Z,534.00
2023-04-27T01:39:04.882Z,530.00
2023-04-27T01:40:04.948Z,530.00
2023-04-27T01:41:04.986Z,527.00
2023-04-27T01:42:05.035Z,527.00
2023-04-27T01:43:05.100Z,528.00
2023-04-27T01:44:05.134Z,530.00
2023-04-27T01:45:05.205Z,532.00
2023-04-27T01:46:05.229Z,532.00
2023-04-27T01:47:05.292Z,532.00
2023-04-27T01:48:05.338Z,532.00
2023-04-27T01:49:05.397Z,530.00
2023-04-27T01:50:05.452Z,530.00
2023-04-27T01:51:05.475Z,529.00
2023-04-27T01:52:05.543Z,529.00
2023-04-27T01:53:05.605Z,527.00
2023-04-27T01:54:05.604Z,529.00
2023-04-27T01:55:05.686Z,529.00
2023-04-27T01:56:05.731Z,531.00
2023-04-27T01:57:05.797Z,532.00
2023-04-27T01:58:05.855Z,530.00
2023-04-27T01:59:05.891Z,528.00
2023-04-27T02:00:05.927Z,528.00
2023-04-27T02:01:05.988Z,526.00
2023-04-27T02:02:06.122Z,526.00
2023-04-27T02:03:06.156Z,529.00
2023-04-27T02:04:06.282Z,530.00
2023-04-27T02:05:06.205Z,528.00
2023-04-27T02:06:06.240Z,527.00
2023-04-27T02:07:06.266Z,528.00
2023-04-27T02:08:06.325Z,528.00
2023-04-27T02:09:06.373Z,527.00
2023-04-27T02:10:06.437Z,525.00
2023-04-27T02:11:06.467Z,524.00
2023-04-27T02:12:06.516Z,522.00
2023-04-27T02:13:06.579Z,525.00
2023-04-27T02:14:06.632Z,527.00
2023-04-27T02:15:06.647Z,527.00
2023-04-27T02:16:06.749Z,526.00
2023-04-27T02:17:06.757Z,524.00
2023-04-27T02:18:06.851Z,520.00
2023-04-27T02:19:06.844Z,513.00
2023-04-27T02:20:06.903Z,504.00
2023-04-27T02:21:06.939Z,504.00
2023-04-27T02:22:06.946Z,508.00
2023-04-27T02:23:07.003Z,510.00
2023-04-27T02:24:07.036Z,513.00
2023-04-27T02:25:07.039Z,514.00
2023-04-27T02:26:07.084Z,514.00
2023-04-27T02:27:07.123Z,515.00
2023-04-27T02:28:07.131Z,517.00
2023-04-27T02:29:07.151Z,519.00
2023-04-27T02:30:07.167Z,520.00
2023-04-27T02:31:07.180Z,523.00
2023-04-27T02:32:07.184Z,525.00
2023-04-27T02:33:07.222Z,527.00
2023-04-27T02:34:07.208Z,528.00
2023-04-27T02:35:07.223Z,527.00
2023-04-27T02:36:07.220Z,528.00
2023-04-27T02:37:07.223Z,526.00
2023-04-27T02:38:07.266Z,525.00
2023-04-27T02:39:07.224Z,527.00
2023-04-27T02:40:07.272Z,529.00
2023-04-27T02:41:07.257Z,530.00
2023-04-27T02:42:07.235Z,533.00
2023-04-27T02:43:07.269Z,532.00
2023-04-27T02:44:07.258Z,530.00
2023-04-27T02:45:07.244Z,533.00
2023-04-27T02:46:07.459Z,529.00
2023-04-27T02:47:07.397Z,528.00
2023-04-27T02:48:07.263Z,528.00
2023-04-27T02:49:07.243Z,528.00
2023-04-27T02:50:07.266Z,530.00
2023-04-27T02:51:07.274Z,531.00
2023-04-27T02:52:07.262Z,531.00
2023-04-27T02:53:07.227Z,528.00
2023-04-27T02:54:07.214Z,530.00
2023-04-27T02:55:07.265Z,530.00
2023-04-27T02:56:07.259Z,527.00
2023-04-27T02:57:07.272Z,525.00
2023-04-27T02:58:07.300Z,524.00
2023-04-27T02:59:07.348Z,522.00
2023-04-27T03:00:07.361Z,522.00
2023-04-27T03:01:07.421Z,520.00
2023-04-27T03:02:07.459Z,519.00
2023-04-27T03:03:07.520Z,519.00
2023-04-27T03:04:07.598Z,519.00
2023-04-27T03:05:07.535Z,521.00
2023-04-27T03:06:07.622Z,518.00
2023-04-27T03:07:07.657Z,517.00
2023-04-27T03:08:07.677Z,516.00
2023-04-27T03:09:07.755Z,515.00
2023-04-27T03:10:07.774Z,517.00
2023-04-27T03:11:07.811Z,517.00
2023-04-27T03:12:07.887Z,516.00
2023-04-27T03:13:07.895Z,516.00
2023-04-27T03:14:07.986Z,518.00
2023-04-27T03:15:07.988Z,518.00
2023-04-27T03:16:08.083Z,517.00
2023-04-27T03:17:08.137Z,516.00
2023-04-27T03:18:08.242Z,516.00
2023-04-27T03:19:08.245Z,516.00
2023-04-27T03:20:08.265Z,516.00
2023-04-27T03:21:08.345Z,516.00
2023-04-27T03:22:08.394Z,515.00
2023-04-27T03:23:08.455Z,513.00
2023-04-27T03:24:08.522Z,512.00
2023-04-27T03:25:08.613Z,514.00
2023-04-27T03:26:08.675Z,514.00
2023-04-27T03:27:08.712Z,514.00
2023-04-27T03:28:08.748Z,513.00
2023-04-27T03:29:08.778Z,510.00
2023-04-27T03:30:08.853Z,508.00
2023-04-27T03:31:08.902Z,507.00
2023-04-27T03:32:09.007Z,505.00
2023-04-27T03:33:09.039Z,504.00
2023-04-27T03:34:09.090Z,503.00
2023-04-27T03:35:09.130Z,500.00
2023-04-27T03:36:09.157Z,499.00
2023-04-27T03:37:09.239Z,495.00
2023-04-27T03:38:09.334Z,496.00
2023-04-27T03:39:09.338Z,499.00
2023-04-27T03:40:09.360Z,498.00
2023-04-27T03:41:09.422Z,499.00
2023-04-27T03:42:09.504Z,502.00
2023-04-27T03:43:09.551Z,503.00
2023-04-27T03:44:09.609Z,502.00
2023-04-27T03:45:09.670Z,502.00
2023-04-27T03:46:09.691Z,503.00
2023-04-27T03:47:09.842Z,499.00
2023-04-27T03:48:09.871Z,501.00
2023-04-27T03:49:09.858Z,500.00
2023-04-27T03:50:09.957Z,500.00
2023-04-27T03:51:09.966Z,497.00
2023-04-27T03:52:10.003Z,499.00
2023-04-27T03:53:10.085Z,497.00
2023-04-27T03:54:10.146Z,497.00
2023-04-27T03:55:10.185Z,499.00
2023-04-27T03:56:10.244Z,501.00
2023-04-27T03:57:10.282Z,501.00
2023-04-27T03:58:10.323Z,503.00
2023-04-27T03:59:10.438Z,504.00
2023-04-27T04:00:10.453Z,507.00
2023-04-27T04:01:10.496Z,505.00
2023-04-27T04:02:10.556Z,505.00
2023-04-27T04:03:10.867Z,503.00
2023-04-27T04:04:10.782Z,499.00
2023-04-27T04:05:10.810Z,498.00
2023-04-27T04:06:10.746Z,499.00
2023-04-27T04:07:10.818Z,501.00
2023-04-27T04:08:10.852Z,503.00
2023-04-27T04:09:10.959Z,503.00
2023-04-27T04:10:11.002Z,505.00
2023-04-27T04:11:10.981Z,503.00
2023-04-27T04:12:11.086Z,499.00
2023-04-27T04:13:11.142Z,501.00
2023-04-27T04:14:11.150Z,503.00
2023-04-27T04:15:11.191Z,504.00
2023-04-27T04:16:11.304Z,504.00
2023-04-27T04:17:11.332Z,504.00
2023-04-27T04:18:11.380Z,504.00
2023-04-27T04:19:11.586Z,501.00
2023-04-27T04:20:11.481Z,498.00
2023-04-27T04:21:11.524Z,498.00
2023-04-27T04:22:11.585Z,499.00
2023-04-27T04:23:11.599Z,499.00
2023-04-27T04:24:11.659Z,499.00
2023-04-27T04:25:11.741Z,500.00
2023-04-27T04:26:11.752Z,501.00
2023-04-27T04:27:11.798Z,501.00
2023-04-27T04:28:11.906Z,505.00
2023-04-27T04:29:11.988Z,506.00
2023-04-27T04:30:12.052Z,507.00
2023-04-27T04:31:12.029Z,507.00
2023-04-27T04:32:12.102Z,506.00
2023-04-27T04:33:12.146Z,508.00
2023-04-27T04:34:12.158Z,506.00
2023-04-27T04:35:12.240Z,505.00
2023-04-27T04:36:12.296Z,504.00
2023-04-27T04:37:12.350Z,504.00
2023-04-27T04:38:12.471Z,504.00
2023-04-27T04:39:12.662Z,501.00
2023-04-27T04:40:12.477Z,501.00
2023-04-27T04:41:12.520Z,502.00
2023-04-27T04:42:12.557Z,501.00
2023-04-27T04:43:12.606Z,497.00
2023-04-27T04:44:12.684Z,497.00
2023-04-27T04:45:12.709Z,500.00
2023-04-27T04:46:12.919Z,500.00
2023-04-27T04:47:12.833Z,500.00
2023-04-27T04:48:12.853Z,501.00
2023-04-27T04:49:13.172Z,499.00
2023-04-27T04:50:12.947Z,501.00
2023-04-27T04:51:13.011Z,502.00
2023-04-27T04:52:13.070Z,500.00
2023-04-27T04:53:13.124Z,499.00
2023-04-27T04:54:13.192Z,498.00
2023-04-27T04:55:13.225Z,499.00
2023-04-27T04:56:13.301Z,498.00
2023-04-27T04:57:13.310Z,499.00
2023-04-27T04:58:13.398Z,499.00
2023-04-27T04:59:13.573Z,501.00
2023-04-27T05:00:13.531Z,502.00
2023-04-27T05:01:20.557Z,501.00
2023-04-27T05:02:13.588Z,500.00
2023-04-27T05:03:13.691Z,499.00
2023-04-27T05:04:13.631Z,496.00
2023-04-27T05:05:13.527Z,495.00
2023-04-27T05:06:13.514Z,495.00
2023-04-27T05:07:14.891Z,495.00
2023-04-27T05:08:13.509Z,496.00
2023-04-27T05:09:13.685Z,496.00
2023-04-27T05:10:13.504Z,497.00
2023-04-27T05:11:13.502Z,500.00
2023-04-27T05:12:13.469Z,500.00
2023-04-27T05:13:13.476Z,501.00
2023-04-27T05:14:13.554Z,501.00
2023-04-27T05:15:13.599Z,501.00
2023-04-27T05:16:13.707Z,497.00
2023-04-27T05:17:13.673Z,497.00
2023-04-27T05:18:13.792Z,498.00
2023-04-27T05:19:13.966Z,498.00
2023-04-27T05:20:13.859Z,498.00
2023-04-27T05:21:13.918Z,499.00
2023-04-27T05:22:14.011Z,498.00
2023-04-27T05:23:14.094Z,497.00
2023-04-27T05:24:14.064Z,499.00
2023-04-27T05:25:14.095Z,499.00
2023-04-27T05:26:14.159Z,498.00
2023-04-27T05:27:14.203Z,497.00
2023-04-27T05:28:14.295Z,494.00
2023-04-27T05:29:14.698Z,493.00
2023-04-27T05:30:14.392Z,490.00
2023-04-27T05:31:14.513Z,491.00
2023-04-27T05:32:14.527Z,492.00
2023-04-27T05:33:14.818Z,492.00
2023-04-27T05:34:14.614Z,493.00
2023-04-27T05:35:14.681Z,491.00
2023-04-27T05:36:14.668Z,489.00
2023-04-27T05:37:14.694Z,489.00
2023-04-27T05:38:14.741Z,489.00
2023-04-27T05:39:15.209Z,486.00
2023-04-27T05:40:14.815Z,485.00
2023-04-27T05:41:14.826Z,515.00
2023-04-27T05:42:14.862Z,541.00
2023-04-27T05:43:15.336Z,552.00
2023-04-27T05:44:14.987Z,557.00
2023-04-27T05:45:15.016Z,555.00
2023-04-27T05:46:22.159Z,562.00
2023-04-27T05:47:15.085Z,569.00
2023-04-27T05:48:15.066Z,564.00
2023-04-27T05:49:15.317Z,560.00
2023-04-27T05:50:15.027Z,556.00
2023-04-27T05:51:15.049Z,552.00
2023-04-27T05:52:15.017Z,545.00
2023-04-27T05:53:15.347Z,544.00
2023-04-27T05:54:15.046Z,544.00
2023-04-27T05:55:14.979Z,542.00
2023-04-27T05:56:15.044Z,548.00
2023-04-27T05:57:14.986Z,545.00
2023-04-27T05:58:15.008Z,541.00
2023-04-27T05:59:15.404Z,537.00
2023-04-27T06:00:14.974Z,534.00
2023-04-27T06:01:14.962Z,533.00
2023-04-27T06:02:14.991Z,536.00
2023-04-27T06:03:15.195Z,537.00
2023-04-27T06:04:15.311Z,541.00
2023-04-27T06:05:14.960Z,546.00
2023-04-27T06:06:14.924Z,551.00
2023-04-27T06:07:16.223Z,545.00
2023-04-27T06:08:14.925Z,547.00
2023-04-27T06:09:15.275Z,545.00
2023-04-27T06:10:14.930Z,542.00
2023-04-27T06:11:14.949Z,556.00
2023-04-27T06:12:14.952Z,565.00
2023-04-27T06:13:14.983Z,569.00
2023-04-27T06:14:15.064Z,564.00
2023-04-27T06:15:15.057Z,572.00
2023-04-27T06:16:15.157Z,576.00
2023-04-27T06:17:15.134Z,586.00
2023-04-27T06:18:15.422Z,585.00
2023-04-27T06:19:15.456Z,586.00
2023-04-27T06:20:15.254Z,597.00
2023-04-27T06:21:15.313Z,606.00
2023-04-27T06:22:15.329Z,591.00
2023-04-27T06:23:15.865Z,586.00
2023-04-27T06:24:15.397Z,588.00
2023-04-27T06:25:15.473Z,596.00
2023-04-27T06:26:15.514Z,605.00
2023-04-27T06:27:15.589Z,612.00
2023-04-27T06:28:15.583Z,619.00
2023-04-27T06:29:15.833Z,624.00
2023-04-27T06:30:15.679Z,620.00
2023-04-27T06:31:15.736Z,620.00
2023-04-27T06:32:15.762Z,676.00
2023-04-27T06:33:15.836Z,690.00
2023-04-27T06:34:15.851Z,691.00
2023-04-27T06:35:15.855Z,689.00
2023-04-27T06:36:15.939Z,683.00
2023-04-27T06:37:15.928Z,680.00
2023-04-27T06:38:15.934Z,686.00
2023-04-27T06:39:16.198Z,694.00
2023-04-27T06:40:16.055Z,703.00
2023-04-27T06:41:16.076Z,707.00
2023-04-27T06:42:16.122Z,702.00
2023-04-27T06:43:16.390Z,693.00
2023-04-27T06:44:16.298Z,682.00
2023-04-27T06:45:16.292Z,674.00
2023-04-27T06:46:16.383Z,660.00
2023-04-27T06:47:16.350Z,651.00
2023-04-27T06:48:16.438Z,642.00
2023-04-27T06:49:16.556Z,642.00
2023-04-27T06:50:16.475Z,639.00
2023-04-27T06:51:16.511Z,637.00
2023-04-27T06:52:16.606Z,623.00
2023-04-27T06:53:16.626Z,591.00
2023-04-27T06:54:16.677Z,595.00
2023-04-27T06:55:16.744Z,603.00
2023-04-27T06:56:16.791Z,608.00
2023-04-27T06:57:16.825Z,624.00
2023-04-27T06:58:16.903Z,638.00
2023-04-27T06:59:16.904Z,634.00
2023-04-27T07:00:16.930Z,634.00
2023-04-27T07:01:17.007Z,714.00
2023-04-27T07:02:17.038Z,697.00
2023-04-27T07:03:17.308Z,697.00
2023-04-27T07:04:17.192Z,701.00
2023-04-27T07:05:17.157Z,687.00
2023-04-27T07:06:17.205Z,679.00
2023-04-27T07:07:17.240Z,687.00
2023-04-27T07:08:17.281Z,683.00
2023-04-27T07:09:26.986Z,675.00
2023-04-27T07:10:18.320Z,668.00
2023-04-27T07:11:17.337Z,662.00
2023-04-27T07:12:17.293Z,662.00
2023-04-27T07:13:17.299Z,602.00
2023-04-27T07:14:17.372Z,607.00
2023-04-27T07:15:17.289Z,604.00
2023-04-27T07:16:17.505Z,610.00
2023-04-27T07:17:17.235Z,619.00
2023-04-27T07:18:17.253Z,661.00
2023-04-27T07:19:17.279Z,635.00
2023-04-27T07:20:17.269Z,672.00
2023-04-27T07:21:17.269Z,682.00
2023-04-27T07:22:17.233Z,680.00
2023-04-27T07:23:17.249Z,673.00
2023-04-27T07:24:17.337Z,679.00
2023-04-27T07:25:17.311Z,752.00
2023-04-27T07:26:17.343Z,721.00
2023-04-27T07:27:17.383Z,691.00
2023-04-27T07:28:17.433Z,675.00
2023-04-27T07:30:17.444Z,658.00
2023-04-27T07:31:17.462Z,759.00
2023-04-27T07:32:17.448Z,691.00
2023-04-27T07:33:17.425Z,694.00
2023-04-27T07:34:17.871Z,699.00
2023-04-27T07:35:17.386Z,714.00
2023-04-27T07:36:17.404Z,824.00
2023-04-27T07:37:17.408Z,720.00
2023-04-27T07:38:17.389Z,854.00
2023-04-27T07:39:17.860Z,719.00
2023-04-27T07:40:17.366Z,737.00
2023-04-27T07:41:17.357Z,793.00
2023-04-27T07:42:17.347Z,794.00
2023-04-27T07:43:17.337Z,782.00
2023-04-27T07:44:17.370Z,778.00
2023-04-27T07:45:17.350Z,797.00
2023-04-27T07:46:17.418Z,783.00
2023-04-27T07:47:17.325Z,663.00
2023-04-27T07:48:17.390Z,676.00
2023-04-27T07:49:17.388Z,686.00
2023-04-27T07:50:17.306Z,660.00
2023-04-27T07:51:17.286Z,635.00
2023-04-27T07:52:17.311Z,636.00
2023-04-27T07:53:17.270Z,609.00
2023-04-27T07:54:17.288Z,582.00
2023-04-27T07:55:17.234Z,581.00
2023-04-27T07:56:17.235Z,580.00
2023-04-27T07:57:17.263Z,590.00
2023-04-27T07:58:17.230Z,587.00
2023-04-27T07:59:17.477Z,584.00
2023-04-27T08:00:17.248Z,587.00
2023-04-27T08:01:18.491Z,602.00
2023-04-27T08:02:20.136Z,609.00
2023-04-27T08:03:17.576Z,611.00
2023-04-27T08:04:17.419Z,659.00
2023-04-27T08:05:17.622Z,653.00
2023-04-27T08:06:17.746Z,621.00
2023-04-27T08:07:17.633Z,610.00
2023-04-27T08:08:17.465Z,601.00
2023-04-27T08:09:17.183Z,592.00
2023-04-27T08:10:17.166Z,578.00
2023-04-27T08:11:17.165Z,566.00
2023-04-27T08:12:17.138Z,544.00
2023-04-27T08:13:17.162Z,540.00
2023-04-27T08:14:17.389Z,537.00
2023-04-27T08:15:17.126Z,538.00
2023-04-27T08:16:17.150Z,539.00
2023-04-27T08:17:17.106Z,538.00
2023-04-27T08:18:17.196Z,537.00
2023-04-27T08:19:17.150Z,537.00
2023-04-27T08:20:17.110Z,534.00
2023-04-27T08:21:17.103Z,530.00
2023-04-27T08:22:17.100Z,527.00
2023-04-27T08:23:17.071Z,525.00
2023-04-27T08:24:17.079Z,522.00
2023-04-27T08:25:17.034Z,517.00
2023-04-27T08:26:17.088Z,513.00
2023-04-27T08:27:17.075Z,505.00
2023-04-27T08:28:17.036Z,502.00
2023-04-27T08:29:26.978Z,500.00
2023-04-27T08:30:18.013Z,497.00
2023-04-27T08:31:17.060Z,494.00
2023-04-27T08:32:16.991Z,491.00
2023-04-27T08:33:17.020Z,486.00
2023-04-27T08:34:17.047Z,481.00
2023-04-27T08:35:16.997Z,479.00
2023-04-27T08:36:17.022Z,480.00
2023-04-27T08:37:17.037Z,483.00
2023-04-27T08:38:16.988Z,484.00
2023-04-27T08:39:16.993Z,484.00
2023-04-27T08:40:17.394Z,486.00
2023-04-27T08:41:21.716Z,488.00
2023-04-27T08:42:17.963Z,486.00
2023-04-27T08:43:16.934Z,486.00
2023-04-27T08:44:16.968Z,485.00
2023-04-27T08:45:16.929Z,487.00
2023-04-27T08:46:16.936Z,485.00
2023-04-27T08:47:16.951Z,488.00
2023-04-27T08:48:16.952Z,489.00
2023-04-27T08:49:17.333Z,488.00
2023-04-27T08:50:16.954Z,485.00
2023-04-27T08:51:16.895Z,482.00
2023-04-27T08:52:16.899Z,490.00
2023-04-27T08:53:16.879Z,531.00
2023-04-27T08:54:16.870Z,544.00
2023-04-27T08:55:16.977Z,540.00
2023-04-27T08:56:16.877Z,538.00
2023-04-27T08:57:16.845Z,536.00
2023-04-27T08:58:16.844Z,530.00
2023-04-27T08:59:17.389Z,502.00
2023-04-27T09:00:16.845Z,495.00
2023-04-27T09:01:16.903Z,490.00
2023-04-27T09:02:16.962Z,491.00
2023-04-27T09:03:17.007Z,494.00
2023-04-27T09:04:17.143Z,495.00
2023-04-27T09:05:17.001Z,492.00
2023-04-27T09:06:17.142Z,492.00
2023-04-27T09:07:17.112Z,485.00
2023-04-27T09:08:17.092Z,480.00
2023-04-27T09:09:17.126Z,479.00
2023-04-27T09:10:17.229Z,476.00
2023-04-27T09:11:17.216Z,472.00
2023-04-27T09:12:17.251Z,472.00
2023-04-27T09:13:17.268Z,482.00
2023-04-27T09:14:17.336Z,509.00
2023-04-27T09:15:17.334Z,501.00
2023-04-27T09:16:17.405Z,497.00
2023-04-27T09:17:17.284Z,498.00
2023-04-27T09:18:17.307Z,498.00
2023-04-27T09:19:17.306Z,492.00
2023-04-27T09:20:17.291Z,481.00
2023-04-27T09:21:17.276Z,471.00
2023-04-27T09:22:17.274Z,470.00
2023-04-27T09:23:17.302Z,468.00
2023-04-27T09:24:17.236Z,469.00
2023-04-27T09:25:17.214Z,468.00
2023-04-27T09:26:17.240Z,465.00
2023-04-27T09:27:17.243Z,466.00
2023-04-27T09:28:17.224Z,465.00
2023-04-27T09:29:17.233Z,466.00
2023-04-27T09:30:17.233Z,462.00
2023-04-27T09:31:17.331Z,463.00
2023-04-27T09:32:17.576Z,461.00
2023-04-27T09:33:17.350Z,459.00
2023-04-27T09:34:17.364Z,459.00
2023-04-27T09:35:17.385Z,460.00
2023-04-27T09:36:17.375Z,460.00
2023-04-27T09:37:17.376Z,516.00
2023-04-27T09:38:17.399Z,507.00
2023-04-27T09:39:17.441Z,501.00
2023-04-27T09:40:17.490Z,508.00
2023-04-27T09:41:17.926Z,487.00
2023-04-27T09:42:17.638Z,471.00
2023-04-27T09:43:17.584Z,459.00
2023-04-27T09:44:17.627Z,459.00
2023-04-27T09:45:17.697Z,469.00
2023-04-27T09:46:17.923Z,469.00
2023-04-27T09:47:17.836Z,471.00
2023-04-27T09:48:17.879Z,471.00
2023-04-27T09:49:17.909Z,470.00
2023-04-27T09:50:17.976Z,468.00
2023-04-27T09:51:18.459Z,469.00
2023-04-27T09:52:17.974Z,469.00
2023-04-27T09:53:17.976Z,469.00
2023-04-27T09:54:18.060Z,468.00
2023-04-27T09:55:18.124Z,466.00
2023-04-27T09:56:18.124Z,462.00
2023-04-27T09:57:18.171Z,457.00
2023-04-27T09:58:18.180Z,454.00
2023-04-27T09:59:18.210Z,450.00
2023-04-27T10:00:18.291Z,447.00
2023-04-27T10:01:18.389Z,445.00
2023-04-27T10:03:18.446Z,448.00
2023-04-27T10:04:18.601Z,451.00
2023-04-27T10:05:18.532Z,453.00
2023-04-27T10:06:18.574Z,454.00
2023-04-27T10:07:18.366Z,455.00
2023-04-27T10:08:18.366Z,455.00
2023-04-27T10:09:18.368Z,453.00
2023-04-27T10:10:18.611Z,453.00
2023-04-27T10:11:18.344Z,454.00
2023-04-27T10:12:18.360Z,452.00
2023-04-27T10:13:18.325Z,450.00
2023-04-27T10:14:18.292Z,449.00
2023-04-27T10:15:18.296Z,448.00
2023-04-27T10:16:18.317Z,448.00
2023-04-27T10:17:18.306Z,449.00
2023-04-27T10:18:18.266Z,455.00
2023-04-27T10:20:30.803Z,453.00
2023-04-27T10:21:30.833Z,450.00
2023-04-27T10:22:30.829Z,458.00
2023-04-27T10:23:30.832Z,454.00
2023-04-27T10:24:30.858Z,452.00
2023-04-27T10:25:30.958Z,453.00
2023-04-27T10:26:31.017Z,451.00
2023-04-27T10:27:31.038Z,449.00
2023-04-27T10:28:31.049Z,445.00
2023-04-27T10:29:31.046Z,446.00
2023-04-27T10:30:31.119Z,442.00
2023-04-27T10:31:31.558Z,439.00
2023-04-27T10:32:31.116Z,436.00
2023-04-27T10:33:31.005Z,442.00
2023-04-27T10:34:31.110Z,438.00
2023-04-27T10:35:30.989Z,439.00
2023-04-27T10:36:31.095Z,436.00
2023-04-27T10:37:31.144Z,444.00
2023-04-27T10:38:31.120Z,518.00
2023-04-27T10:39:43.679Z,535.00
2023-04-27T10:40:32.166Z,536.00
2023-04-27T10:41:31.543Z,544.00
2023-04-27T10:42:31.138Z,546.00
2023-04-27T10:43:31.101Z,543.00
2023-04-27T10:44:31.117Z,543.00
2023-04-27T10:45:31.757Z,541.00
2023-04-27T10:46:31.748Z,536.00
2023-04-27T10:47:31.117Z,532.00
2023-04-27T10:48:31.085Z,530.00
2023-04-27T10:49:31.102Z,527.00
2023-04-27T10:50:31.106Z,525.00
2023-04-27T10:51:31.085Z,528.00
2023-04-27T10:52:31.119Z,527.00
2023-04-27T10:53:31.140Z,528.00
2023-04-27T10:54:31.132Z,527.00
2023-04-27T10:55:31.349Z,527.00
2023-04-27T10:56:31.556Z,526.00
2023-04-27T10:57:31.259Z,528.00
2023-04-27T10:58:41.497Z,527.00
2023-04-27T10:59:32.236Z,526.00
2023-04-27T11:00:31.194Z,529.00
2023-04-27T11:01:32.133Z,528.00
2023-04-27T11:02:31.309Z,531.00
2023-04-27T11:03:31.251Z,532.00
2023-04-27T11:04:31.211Z,535.00
2023-04-27T11:05:31.230Z,536.00
2023-04-27T11:06:31.183Z,536.00
2023-04-27T11:07:31.189Z,530.00
2023-04-27T11:08:31.186Z,528.00
2023-04-27T11:09:31.249Z,527.00
2023-04-27T11:10:31.107Z,528.00
2023-04-27T11:11:31.169Z,531.00
2023-04-27T11:12:31.231Z,531.00
2023-04-27T11:13:31.147Z,530.00
2023-04-27T11:14:31.131Z,531.00
2023-04-27T11:15:31.136Z,533.00
2023-04-27T11:16:32.816Z,531.00
2023-04-27T11:17:31.142Z,534.00
2023-04-27T11:18:31.083Z,538.00
2023-04-27T11:19:31.110Z,538.00
2023-04-27T11:20:31.134Z,535.00
2023-04-27T11:21:31.571Z,539.00
2023-04-27T11:22:31.056Z,536.00
2023-04-27T11:23:31.068Z,534.00
2023-04-27T11:24:31.041Z,531.00
2023-04-27T11:25:31.090Z,528.00
2023-04-27T11:26:31.060Z,527.00
2023-04-27T11:27:31.062Z,530.00
2023-04-27T11:28:30.996Z,533.00
2023-04-27T11:29:32.282Z,536.00
2023-04-27T11:30:31.036Z,534.00
2023-04-27T11:31:31.099Z,536.00
2023-04-27T11:32:31.235Z,537.00
2023-04-27T11:33:31.068Z,535.00
2023-04-27T11:34:31.015Z,536.00
2023-04-27T11:35:30.968Z,538.00
2023-04-27T11:36:31.075Z,538.00
2023-04-27T11:37:31.036Z,536.00
2023-04-27T11:38:31.056Z,536.00
2023-04-27T11:39:30.945Z,537.00
2023-04-27T11:40:30.973Z,538.00
2023-04-27T11:41:31.111Z,538.00
2023-04-27T11:42:30.941Z,536.00
2023-04-27T11:43:30.910Z,535.00
2023-04-27T11:44:30.920Z,537.00
2023-04-27T11:45:30.950Z,538.00
2023-04-27T11:46:30.936Z,537.00
2023-04-27T11:47:30.932Z,538.00
2023-04-27T11:48:30.905Z,538.00
2023-04-27T11:49:30.902Z,536.00
2023-04-27T11:50:30.865Z,533.00
2023-04-27T11:51:31.088Z,533.00
2023-04-27T11:52:30.863Z,537.00
2023-04-27T11:53:30.898Z,534.00
2023-04-27T11:54:30.849Z,533.00
2023-04-27T11:55:30.837Z,535.00
2023-04-27T11:56:30.856Z,536.00
2023-04-27T11:57:30.810Z,534.00
2023-04-27T11:58:30.808Z,534.00
2023-04-27T11:59:30.816Z,535.00
2023-04-27T12:00:30.832Z,535.00
2023-04-27T12:01:37.606Z,535.00
2023-04-27T12:02:31.985Z,533.00
2023-04-27T12:03:31.113Z,535.00
2023-04-27T12:04:30.963Z,532.00
2023-04-27T12:05:30.977Z,531.00
2023-04-27T12:06:33.070Z,532.00
2023-04-27T12:07:30.774Z,533.00
2023-04-27T12:08:30.701Z,535.00
2023-04-27T12:09:30.777Z,537.00
2023-04-27T12:10:30.758Z,535.00
2023-04-27T12:11:30.704Z,534.00
2023-04-27T12:12:30.766Z,533.00
2023-04-27T12:13:30.718Z,532.00
2023-04-27T12:14:30.687Z,532.00
2023-04-27T12:15:30.733Z,529.00
2023-04-27T12:16:30.729Z,527.00
2023-04-27T12:17:30.751Z,526.00
2023-04-27T12:18:30.655Z,527.00
2023-04-27T12:19:30.645Z,525.00
2023-04-27T12:20:30.729Z,525.00
2023-04-27T12:21:30.714Z,525.00
2023-04-27T12:22:30.606Z,526.00
2023-04-27T12:23:30.684Z,529.00
2023-04-27T12:24:30.663Z,526.00
2023-04-27T12:25:30.612Z,526.00
2023-04-27T12:26:30.626Z,525.00
2023-04-27T12:27:30.660Z,525.00
2023-04-27T12:28:30.749Z,524.00
2023-04-27T12:29:30.616Z,523.00
2023-04-27T12:30:30.604Z,522.00
2023-04-27T12:31:30.640Z,523.00
2023-04-27T12:32:31.152Z,524.00